Terminal Aerodrome Forecast
Issued by NWS Mt. Holly, NJ

Current Version | Previous Version | Text Only | Print | Product List | Glossary On
Versions: 1 2 3 4 5 6 7 8 9 10 11 12 13 14 15 16 17 18 19 20 21 22 23 24 25 26 27 28 29
000
FTUS41 KPHI 302126 AAA
TAFPHL
TAF AMD
KPHL 302126Z 3021/0124 10013KT P6SM OVC035
     FM010000 11010KT P6SM OVC013
     FM010400 11006KT P6SM OVC008
     FM010600 13004KT 2SM BR OVC008
     FM011200 18008KT 6SM BR BKN012
     FM011400 21012KT P6SM BKN030
     FM011700 21015G25KT P6SM BKN040=

USA.gov is the U.S. government's official web portal to all federal, state and local government web resources and services.